Time;durP1;ratioP1;P1;durP2;ratioP2;P2;SDS_P1;SDS_P2;PMS_P1;PMS_P2;Temp;Humidity;BMP_temperature;BMP_pressure;BME280_temperature;BME280_humidity;BME280_pressure;Samples;Min_cycle;Max_cycle;Signal;HPM_P1;HPM_P2
2023/03/15 08:08:04;;;;;;;8.40;3.07;;;;;;;12.80;52.63;100022.16;4932010;27;6874179;-92
2023/03/15 08:13:16;;;;;;;6.10;3.03;;;;;;;13.76;50.26;100011.84;5197416;22;20473;-85
2023/03/15 08:15:46;;;;;;;7.35;2.90;;;;;;;13.27;51.37;100007.25;5045926;28;20045;-85
2023/03/15 08:18:12;;;;;;;8.18;3.15;;;;;;;12.61;53.96;99983.16;5005365;28;20484;-86
2023/03/15 08:20:40;;;;;;;9.82;3.67;;;;;;;14.11;50.23;100009.97;5021909;28;20025;-87
2023/03/15 08:23:15;;;;;;;9.75;3.17;;;;;;;16.10;45.82;100011.31;5049022;28;20480;-92
2023/03/15 08:25:43;;;;;;;10.68;3.17;;;;;;;16.48;43.25;99978.00;5035123;28;20062;-92
2023/03/15 08:28:13;;;;;;;6.55;2.80;;;;;;;17.08;41.95;99985.81;5032297;28;20041;-88
2023/03/15 08:30:40;;;;;;;9.85;3.17;;;;;;;17.69;40.22;99985.09;5030123;28;20029;-90
2023/03/15 08:33:07;;;;;;;7.15;2.78;;;;;;;18.42;38.50;99979.91;5023020;28;20081;-87
2023/03/15 08:35:34;;;;;;;6.97;3.40;;;;;;;19.48;37.01;100000.19;5027082;28;20113;-89
2023/03/15 08:38:01;;;;;;;7.70;3.50;;;;;;;18.34;38.38;99971.00;5027289;28;20052;-89
2023/03/15 08:40:43;;;;;;;8.02;3.33;;;;;;;17.64;39.91;99984.09;5024500;28;20037;-92
2023/03/15 08:43:14;;;;;;;9.98;3.97;;;;;;;15.66;44.71;99999.28;5027910;28;20144;-86
2023/03/15 08:45:40;;;;;;;8.07;3.47;;;;;;;16.37;43.51;99973.28;5025268;28;20059;-90
2023/03/15 08:48:13;;;;;;;11.13;3.88;;;;;;;16.07;44.44;100017.19;5068239;28;20025;-93
2023/03/15 08:50:38;;;;;;;7.45;3.60;;;;;;;15.65;45.48;100007.63;5033969;28;20060;-88
2023/03/15 08:53:05;;;;;;;;;;;;;;;15.94;45.13;100019.91;5029115;28;20049;-89
2023/03/15 08:55:31;;;;;;;6.45;3.75;;;;;;;14.85;47.63;99984.06;5047670;28;19916;-90
2023/03/15 08:58:00;;;;;;;8.30;3.58;;;;;;;14.84;48.19;100004.03;5035422;28;20098;-90
2023/03/15 09:00:26;;;;;;;9.40;3.95;;;;;;;14.82;48.14;99976.38;5053966;28;20067;-89
2023/03/15 09:02:52;;;;;;;7.35;3.65;;;;;;;15.61;46.97;99999.09;5011298;28;20417;-87
2023/03/15 09:05:18;;;;;;;10.43;4.30;;;;;;;15.20;47.69;99989.31;5055755;28;20104;-87
2023/03/15 09:07:44;;;;;;;;;;;;;;;14.69;49.70;100003.38;5025407;28;20045;-87
2023/03/15 09:10:16;;;;;;;7.32;3.88;;;;;;;14.24;50.55;99984.06;5046307;28;19917;-90
2023/03/15 09:12:46;;;;;;;10.07;4.00;;;;;;;14.47;50.05;99986.41;5043358;28;20726;-87
2023/03/15 09:15:13;;;;;;;12.80;4.68;;;;;;;14.30;51.04;99997.56;5028491;28;20025;-84
2023/03/15 09:17:39;;;;;;;10.18;4.47;;;;;;;15.12;48.52;99986.78;5015066;28;20116;-85
2023/03/15 09:20:13;;;;;;;11.15;4.85;;;;;;;14.49;49.60;99981.63;4981720;28;20153;-90
2023/03/15 09:22:42;;;;;;;8.10;4.60;;;;;;;15.00;48.98;99978.44;5036018;28;20109;-85
2023/03/15 09:25:08;;;;;;;10.35;4.78;;;;;;;16.22;46.96;99987.09;5013236;28;20142;-86
2023/03/15 09:27:34;;;;;;;;;;;;;;;15.85;47.43;99996.78;5019572;28;20244;-86
2023/03/15 09:30:04;;;;;;;11.38;4.80;;;;;;;15.60;47.48;99951.38;5022048;28;19917;-89
2023/03/15 09:32:34;;;;;;;9.75;4.63;;;;;;;16.63;46.25;99956.84;5028492;28;20040;-92
2023/03/15 09:35:02;;;;;;;11.52;5.25;;;;;;;15.90;47.04;99981.56;5046035;28;20044;-88
2023/03/15 09:37:28;;;;;;;15.90;6.60;;;;;;;14.35;49.58;99948.28;5038831;28;20037;-89
2023/03/15 09:39:55;;;;;;;12.93;7.10;;;;;;;14.85;49.20;99967.00;4991148;28;20029;-92
2023/03/15 09:42:44;;;;;;;10.65;6.57;;;;;;;15.22;47.75;99965.56;5002262;28;20393;-89
2023/03/15 09:45:54;;;;;;;16.30;7.55;;;;;;;15.53;47.50;99961.38;5030935;28;20038;-91
2023/03/15 09:49:00;;;;;;;13.70;7.30;;;;;;;14.90;49.37;99956.38;5029495;28;20056;-92
2023/03/15 09:51:46;;;;;;;14.10;6.72;;;;;;;15.20;49.13;99962.22;5043503;28;20040;-93
2023/03/15 09:54:28;;;;;;;13.45;7.43;;;;;;;14.75;50.14;99943.06;5026443;28;20144;-91
2023/03/15 09:57:20;;;;;;;12.93;7.50;;;;;;;15.18;49.11;99929.13;5041959;28;20036;-92
2023/03/15 09:59:55;;;;;;;15.70;7.93;;;;;;;14.97;49.31;99930.97;5023294;28;20041;-93
2023/03/15 10:02:31;;;;;;;14.55;9.20;;;;;;;14.14;51.37;99931.19;5019194;28;20470;-93
2023/03/15 10:05:21;;;;;;;18.30;9.23;;;;;;;13.63;53.22;99942.38;5018629;28;20147;-91
2023/03/15 10:07:47;;;;;;;12.63;8.38;;;;;;;14.38;51.40;99920.88;5001635;28;20033;-93
2023/03/15 10:10:18;;;;;;;17.70;8.88;;;;;;;16.33;46.72;99940.31;5016602;28;20099;-92
2023/03/15 10:12:56;;;;;;;13.32;8.50;;;;;;;15.40;47.39;99917.03;5035927;28;20029;-94
2023/03/15 10:15:49;;;;;;;13.23;8.43;;;;;;;16.39;45.85;99930.50;5014533;28;20137;-88
2023/03/15 10:18:27;;;;;;;13.38;7.68;;;;;;;17.71;42.66;99915.03;5037388;28;20044;-87
2023/03/15 10:21:05;;;;;;;14.48;8.15;;;;;;;17.60;43.11;99921.19;5021938;28;20099;-87
2023/03/15 10:23:43;;;;;;;13.52;7.72;;;;;;;17.06;44.04;99912.72;5017193;28;20064;-86
2023/03/15 10:26:11;;;;;;;13.15;8.30;;;;;;;17.26;43.33;99911.72;5015869;28;20026;-88
2023/03/15 10:28:41;;;;;;;27.50;20.55;;;;;;;16.07;45.87;99897.06;5020111;28;20029;-88
2023/03/15 10:31:15;;;;;;;14.68;9.65;;;;;;;15.89;46.94;99898.56;5004099;28;20069;-89
2023/03/15 10:33:43;;;;;;;15.77;9.77;;;;;;;15.65;48.32;99921.75;5034666;28;20115;-92
2023/03/15 10:36:17;;;;;;;14.32;8.55;;;;;;;15.10;50.16;99932.88;5023220;28;20451;-91
2023/03/15 10:38:44;;;;;;;15.02;8.75;;;;;;;14.28;52.07;99898.78;5041296;28;20119;-92
2023/03/15 10:41:14;;;;;;;19.48;10.40;;;;;;;13.83;53.61;99891.13;5009599;28;20453;-92
2023/03/15 10:43:43;;;;;;;16.45;9.48;;;;;;;13.78;53.87;99895.47;5021315;28;20138;-92
2023/03/15 10:46:29;;;;;;;19.00;9.90;;;;;;;14.77;51.87;99905.75;4998990;28;20046;-88
2023/03/15 10:48:59;;;;;;;16.38;8.43;;;;;;;16.44;47.58;99898.13;5044227;28;20037;-89
2023/03/15 10:51:27;;;;;;;14.20;8.68;;;;;;;18.41;42.78;99863.97;5042324;28;20017;-90
2023/03/15 10:54:34;;;;;;;11.63;8.13;;;;;;;19.12;40.61;99870.41;5041146;28;20429;-91
2023/03/15 10:57:18;;;;;;;11.75;8.18;;;;;;;19.12;39.84;99835.81;5020000;28;20056;-87
2023/03/15 11:00:09;;;;;;;16.85;8.07;;;;;;;18.03;42.07;99841.47;5005611;28;20064;-83
2023/03/15 11:02:35;;;;;;;12.13;7.95;;;;;;;17.00;44.97;99853.06;5045297;28;20095;-85
2023/03/15 11:05:11;;;;;;;14.13;8.60;;;;;;;16.95;45.20;99870.00;5023639;28;20035;-86
2023/03/15 11:07:36;;;;;;;15.65;8.55;;;;;;;16.61;46.56;99866.69;5030366;28;20068;-88
2023/03/15 11:10:03;;;;;;;;;;;;;;;15.52;49.11;99862.19;5021722;28;20033;-88
2023/03/15 11:12:36;;;;;;;13.82;8.35;;;;;;;15.16;49.89;99864.34;5012030;28;20073;-91
2023/03/15 11:15:28;;;;;;;12.70;8.18;;;;;;;14.86;50.66;99849.56;4992680;28;20044;-88
2023/03/15 11:17:58;;;;;;;14.13;7.70;;;;;;;14.29;52.55;99846.38;5029512;28;20567;-88
2023/03/15 11:20:39;;;;;;;13.45;7.80;;;;;;;15.38;49.96;99835.16;5036881;28;20175;-86
2023/03/15 11:23:38;;;;;;;16.95;8.38;;;;;;;15.06;50.98;99830.63;5015795;28;20472;-89
2023/03/15 11:26:05;;;;;;;14.52;8.07;;;;;;;16.43;48.21;99815.03;5026785;28;20083;-90
2023/03/15 11:28:36;;;;;;;12.98;7.47;;;;;;;15.96;49.12;99836.19;4996690;28;20087;-88
2023/03/15 11:31:03;;;;;;;12.88;6.93;;;;;;;15.95;48.83;99819.09;5013250;28;20042;-87
2023/03/15 11:33:53;;;;;;;11.40;6.75;;;;;;;15.46;50.30;99819.72;4995544;28;20404;-88
2023/03/15 11:36:21;;;;;;;16.80;8.50;;;;;;;14.46;52.62;99777.34;5013859;28;20038;-87
2023/03/15 11:38:47;;;;;;;22.73;8.90;;;;;;;13.97;54.46;99826.34;4997271;28;20042;-87
2023/03/15 11:41:35;;;;;;;14.27;7.63;;;;;;;14.25;53.92;99828.91;5011770;28;20111;-87
2023/03/15 11:44:53;;;;;;;14.88;8.13;;;;;;;14.17;54.17;99816.41;5032625;28;20039;-86
2023/03/15 11:47:41;;;;;;;12.98;7.93;;;;;;;14.63;53.41;99826.47;4980101;28;20054;-89
2023/03/15 11:50:07;;;;;;;12.93;8.15;;;;;;;14.80;52.26;99799.00;5036624;28;20136;-88
2023/03/15 11:52:33;;;;;;;15.00;8.13;;;;;;;15.89;50.05;99813.72;5012120;28;20140;-88
2023/03/15 11:55:02;;;;;;;13.20;7.95;;;;;;;16.29;49.17;99819.72;5007211;28;20056;-87
2023/03/15 11:57:28;;;;;;;10.07;7.88;;;;;;;16.48;48.23;99812.50;5028476;28;20042;-88
2023/03/15 11:59:55;;;;;;;;;;;;;;;16.36;48.63;99825.13;5042282;28;20076;-86
2023/03/15 12:02:25;;;;;;;12.55;7.88;;;;;;;16.38;48.67;99826.56;5020585;28;19913;-88
2023/03/15 12:04:55;;;;;;;13.65;6.40;;;;;;;16.06;48.36;99787.78;5011931;28;20026;-88
2023/03/15 12:07:23;;;;;;;15.85;8.02;;;;;;;15.17;51.33;99817.28;4979080;28;20037;-86
2023/03/15 12:10:03;;;;;;;10.77;6.43;;;;;;;14.30;53.38;99815.59;5035204;28;20045;-86
2023/03/15 12:12:32;;;;;;;12.05;7.05;;;;;;;14.18;54.30;99833.47;5028521;28;20044;-88
2023/03/15 12:15:17;;;;;;;12.48;8.88;;;;;;;13.91;55.42;99825.28;5029500;28;20021;-87
2023/03/15 12:17:55;;;;;;;17.27;8.45;;;;;;;13.20;56.26;99806.66;5028614;28;20021;-84
2023/03/15 12:20:41;;;;;;;14.25;8.45;;;;;;;13.00;57.97;99803.84;5011713;28;20459;-85
2023/03/15 12:23:16;;;;;;;12.10;7.88;;;;;;;13.44;57.35;99827.81;5013330;28;20095;-85
2023/03/15 12:25:52;;;;;;;15.10;9.30;;;;;;;13.32;57.80;99836.63;5031070;28;20036;-84
2023/03/15 12:28:45;;;;;;;13.68;7.68;;;;;;;13.13;57.97;99830.88;5038149;28;20045;-85
2023/03/15 12:31:12;;;;;;;11.98;8.65;;;;;;;12.70;59.55;99812.13;5021197;28;20694;-85
2023/03/15 12:34:23;;;;;;;14.82;8.40;;;;;;;12.09;61.71;99822.56;5015244;28;20122;-85
2023/03/15 12:36:52;;;;;;;19.70;9.10;;;;;;;11.61;63.73;99821.16;5028584;28;20117;-88
2023/03/15 12:39:21;;;;;;;13.68;9.80;;;;;;;11.72;63.94;99822.50;5011819;28;20093;-87
2023/03/15 12:41:48;;;;;;;15.60;8.43;;;;;;;11.79;63.38;99817.22;5002851;28;20080;-86
2023/03/15 12:44:34;;;;;;;17.95;9.75;;;;;;;11.76;64.15;99815.72;5001922;28;20143;-87
2023/03/15 12:47:02;;;;;;;19.40;10.38;;;;;;;11.48;65.05;99812.91;5007947;28;20560;-86
2023/03/15 12:49:35;;;;;;;15.48;9.00;;;;;;;11.36;66.36;99825.19;5029938;28;20084;-86
2023/03/15 12:52:22;;;;;;;15.07;9.40;;;;;;;11.64;66.25;99854.94;5014013;28;20046;-88
2023/03/15 12:55:13;;;;;;;12.43;8.27;;;;;;;11.37;67.02;99845.66;5032702;28;20036;-86
2023/03/15 12:57:56;;;;;;;16.27;9.20;;;;;;;11.28;67.60;99844.91;5005740;28;20128;-86
2023/03/15 13:00:24;;;;;;;16.25;8.90;;;;;;;11.45;66.91;99826.75;5019644;28;20095;-86
2023/03/15 13:03:15;;;;;;;18.17;8.50;;;;;;;11.44;66.68;99830.44;5003679;28;20033;-92
2023/03/15 13:05:51;;;;;;;26.48;9.73;;;;;;;11.50;67.05;99829.72;5047192;28;20048;-87
2023/03/15 13:08:25;;;;;;;17.02;8.35;;;;;;;11.40;66.78;99834.53;5001324;28;20025;-89
2023/03/15 13:11:11;;;;;;;17.85;9.57;;;;;;;11.12;67.70;99832.50;5014782;28;20116;-86
2023/03/15 13:14:05;;;;;;;15.27;8.32;;;;;;;11.22;67.63;99834.91;5012343;28;20049;-85
2023/03/15 13:16:52;;;;;;;17.30;9.48;;;;;;;11.02;68.22;99801.50;5014672;28;20037;-83
2023/03/15 13:19:22;;;;;;;17.63;9.73;;;;;;;11.17;68.00;99803.19;4998684;28;20060;-83
2023/03/15 13:22:09;;;;;;;20.20;9.85;;;;;;;11.16;68.10;99822.19;4980755;28;20049;-84
2023/03/15 13:25:04;;;;;;;15.35;10.75;;;;;;;11.45;67.60;99825.88;5034564;28;20139;-80
2023/03/15 13:27:48;;;;;;;20.15;10.05;;;;;;;11.31;67.99;99824.91;5021839;28;20045;-82
2023/03/15 13:30:36;;;;;;;20.17;9.13;;;;;;;11.35;67.71;99831.56;5039822;28;20059;-82
2023/03/15 13:33:09;;;;;;;18.73;10.23;;;;;;;11.38;67.70;99821.28;4997720;28;20041;-83
2023/03/15 13:35:54;;;;;;;16.52;9.80;;;;;;;11.25;68.12;99814.88;5033620;28;20056;-84
2023/03/15 13:38:36;;;;;;;15.38;9.70;;;;;;;11.23;67.94;99806.97;5019889;28;20041;-82
2023/03/15 13:41:04;;;;;;;15.05;8.93;;;;;;;11.07;68.36;99802.59;5004695;28;20117;-82
2023/03/15 13:43:34;;;;;;;18.10;9.48;;;;;;;11.08;68.89;99798.09;5013159;28;20183;-85
2023/03/15 13:46:00;;;;;;;16.25;9.73;;;;;;;11.21;69.38;99784.81;5004963;28;20072;-86
2023/03/15 13:48:29;;;;;;;18.08;7.95;;;;;;;11.39;67.64;99811.34;5017001;28;20029;-83
2023/03/15 13:50:59;;;;;;;12.60;7.95;;;;;;;11.16;68.11;99817.63;5015248;28;20049;-84
2023/03/15 13:53:33;;;;;;;12.93;7.40;;;;;;;11.10;68.44;99818.41;4999582;28;20033;-84
2023/03/15 13:56:00;;;;;;;16.70;8.00;;;;;;;10.88;69.27;99820.13;5030047;28;20120;-84
2023/03/15 13:58:26;;;;;;;14.27;6.40;;;;;;;10.31;70.27;99785.72;4999182;28;20041;-85
2023/03/15 14:00:58;;;;;;;13.73;7.63;;;;;;;10.53;70.83;99810.88;4993017;28;20512;-83
2023/03/15 14:03:25;;;;;;;17.90;7.55;;;;;;;10.56;70.61;99815.91;5014232;28;20114;-85
2023/03/15 14:05:52;;;;;;;13.13;7.35;;;;;;;10.33;71.84;99811.38;4992777;28;20112;-84
2023/03/15 14:08:22;;;;;;;12.80;6.13;;;;;;;10.36;71.46;99804.81;5005735;28;20044;-83
2023/03/15 14:11:14;;;;;;;16.75;7.53;;;;;;;10.50;71.48;99789.75;4997934;28;20065;-83
2023/03/15 14:13:52;;;;;;;20.52;7.82;;;;;;;10.45;71.90;99797.53;5007892;28;20045;-85
2023/03/15 14:16:41;;;;;;;13.90;7.57;;;;;;;10.46;71.84;99804.56;5004973;28;20025;-83
2023/03/15 14:19:19;;;;;;;17.10;8.38;;;;;;;10.50;71.85;99789.75;5026713;28;20314;-83
2023/03/15 14:21:57;;;;;;;12.85;7.30;;;;;;;10.49;71.57;99796.16;4991364;28;20099;-85
2023/03/15 14:24:26;;;;;;;17.38;7.22;;;;;;;10.23;72.70;99799.16;5012558;28;20043;-84
2023/03/15 14:27:01;;;;;;;13.88;7.90;;;;;;;10.30;72.24;99790.25;5023030;28;20036;-84
2023/03/15 14:29:36;;;;;;;15.60;7.88;;;;;;;10.27;72.45;99801.31;5029503;28;20103;-84
2023/03/15 14:32:05;;;;;;;15.73;7.72;;;;;;;10.34;72.77;99802.28;4986691;28;20033;-84
2023/03/15 14:34:32;;;;;;;16.25;7.80;;;;;;;10.13;73.43;99808.28;5028664;28;20044;-85
2023/03/15 14:36:58;;;;;;;29.90;14.43;;;;;;;9.93;73.89;99791.84;5009038;28;20048;-83
2023/03/15 14:39:29;;;;;;;13.18;7.35;;;;;;;9.95;74.30;99788.97;4974168;28;20045;-83
2023/03/15 14:41:56;;;;;;;15.93;9.05;;;;;;;9.76;75.39;99790.25;4998664;28;20056;-82
2023/03/15 14:44:22;;;;;;;17.00;8.73;;;;;;;9.73;75.81;99786.06;5033507;28;20477;-86
2023/03/15 14:46:48;;;;;;;18.20;8.85;;;;;;;9.42;77.11;99780.72;5008835;28;20041;-84
2023/03/15 14:49:23;;;;;;;15.52;9.73;;;;;;;9.60;76.23;99760.81;5011372;28;20426;-83
2023/03/15 14:51:53;;;;;;;19.40;10.13;;;;;;;9.81;76.34;99795.09;4978370;28;20064;-84
2023/03/15 14:54:20;;;;;;;20.58;9.50;;;;;;;9.54;76.81;99783.84;5006667;28;20044;-84
2023/03/15 14:56:45;;;;;;;16.02;8.20;;;;;;;9.47;77.34;99769.44;4998928;28;20094;-86
2023/03/15 14:59:11;;;;;;;17.77;9.48;;;;;;;9.51;77.54;99798.44;5025829;28;20052;-84
2023/03/15 15:01:39;;;;;;;17.38;8.55;;;;;;;9.57;77.44;99796.88;4992559;28;20033;-86
2023/03/15 15:04:08;;;;;;;20.55;11.15;;;;;;;9.66;77.16;99792.31;5014969;28;20496;-85
2023/03/15 15:06:36;;;;;;;17.50;8.93;;;;;;;9.80;76.80;99810.34;4994114;28;20441;-87
2023/03/15 15:09:10;;;;;;;23.15;10.68;;;;;;;9.56;76.51;99764.88;5014214;28;20033;-85
2023/03/15 15:11:38;;;;;;;19.20;11.13;;;;;;;9.65;77.48;99780.75;4991927;28;20033;-89
2023/03/15 15:14:13;;;;;;;21.90;10.18;;;;;;;9.67;77.32;99789.47;4993265;28;20361;-87
2023/03/15 15:16:42;;;;;;;20.40;10.43;;;;;;;9.60;76.99;99779.59;4971980;28;20026;-88
2023/03/15 15:19:09;;;;;;;18.65;10.05;;;;;;;9.73;77.12;99777.19;4998164;28;20033;-88
2023/03/15 15:21:36;;;;;;;22.52;12.45;;;;;;;9.58;77.55;99778.97;5019497;28;20042;-87
2023/03/15 15:24:04;;;;;;;20.02;10.65;;;;;;;9.61;77.79;99781.28;5022306;28;20037;-90
2023/03/15 15:26:31;;;;;;;18.40;11.02;;;;;;;9.48;77.87;99769.28;5002391;28;20060;-88
2023/03/15 15:28:59;;;;;;;21.33;11.10;;;;;;;9.81;77.61;99800.44;4985917;28;20033;-87
2023/03/15 15:31:25;;;;;;;21.05;12.27;;;;;;;9.87;77.37;99787.16;4998494;28;20052;-84
2023/03/15 15:33:51;;;;;;;;;;;;;;;9.87;77.04;99792.53;4995474;28;20044;-87
2023/03/15 15:36:40;;;;;;;19.35;10.30;;;;;;;9.57;77.22;99766.53;5027302;28;19953;-86
2023/03/15 15:39:26;;;;;;;20.48;11.00;;;;;;;9.51;78.21;99768.94;5023308;28;20039;-84
2023/03/15 15:41:52;;;;;;;20.98;10.32;;;;;;;9.46;78.58;99786.56;4998331;28;20425;-87
2023/03/15 15:44:26;;;;;;;20.63;12.13;;;;;;;9.39;78.92;99786.44;4987586;28;20037;-85
2023/03/15 15:46:51;;;;;;;23.15;12.68;;;;;;;9.23;79.35;99787.34;5006063;28;20511;-86
2023/03/15 15:49:18;;;;;;;19.98;13.15;;;;;;;9.23;79.68;99781.13;4974060;28;20054;-87
2023/03/15 15:51:45;;;;;;;21.48;13.05;;;;;;;9.28;79.53;99784.97;5018577;28;20046;-90
2023/03/15 15:54:20;;;;;;;28.25;14.05;;;;;;;9.18;79.51;99786.19;4991877;28;20036;-89
2023/03/15 15:56:57;;;;;;;22.95;12.73;;;;;;;9.17;79.90;99808.63;5003123;28;20048;-89
2023/03/15 15:59:26;;;;;;;24.77;13.70;;;;;;;9.14;79.85;99784.84;5024191;28;20026;-88
2023/03/15 16:01:52;;;;;;;30.15;15.93;;;;;;;9.11;79.60;99778.00;5028441;28;20601;-86
2023/03/15 16:04:21;;;;;;;31.15;14.63;;;;;;;9.16;80.27;99786.34;5005033;28;20041;-86
2023/03/15 16:06:54;;;;;;;22.35;13.32;;;;;;;9.11;80.01;99783.34;5008934;28;20036;-87
2023/03/15 16:09:23;;;;;;;22.90;13.18;;;;;;;9.12;80.48;99827.91;4989041;28;20048;-88
2023/03/15 16:11:48;;;;;;;28.02;14.98;;;;;;;9.06;80.63;99801.78;4997887;28;20060;-90
2023/03/15 16:14:15;;;;;;;20.63;12.40;;;;;;;9.07;80.39;99801.63;4997964;28;20053;-88
2023/03/15 16:16:40;;;;;;;;;;;;;;;9.13;80.87;99823.38;5000861;28;20049;-85
2023/03/15 16:19:06;;;;;;;19.13;11.63;;;;;;;8.78;82.19;99810.25;5004708;28;19947;-88
2023/03/15 16:21:47;;;;;;;24.92;12.48;;;;;;;8.61;82.46;99796.00;4983093;28;20032;-88
2023/03/15 16:24:44;;;;;;;25.98;15.63;;;;;;;8.79;82.90;99830.66;4984440;28;20166;-86
2023/03/15 16:27:12;;;;;;;28.23;16.23;;;;;;;8.72;82.99;99820.81;5014593;28;20049;-87
2023/03/15 16:30:00;;;;;;;23.55;13.75;;;;;;;8.74;82.27;99826.84;4987089;28;20063;-89
2023/03/15 16:32:27;;;;;;;22.30;13.43;;;;;;;8.54;82.55;99786.97;5022362;28;20038;-89
2023/03/15 16:34:53;;;;;;;29.17;16.20;;;;;;;8.90;82.45;99828.63;5023488;28;20034;-88
2023/03/15 16:37:29;;;;;;;28.67;16.38;;;;;;;8.70;82.69;99804.06;5006856;28;20053;-88
2023/03/15 16:39:58;;;;;;;26.70;16.48;;;;;;;8.85;82.48;99826.50;4997264;28;20425;-88
2023/03/15 16:42:24;;;;;;;25.60;14.27;;;;;;;8.93;81.82;99829.13;4995806;28;20030;-88
2023/03/15 16:44:52;;;;;;;24.55;14.15;;;;;;;8.88;81.49;99824.28;5003222;28;20099;-86
2023/03/15 16:47:19;;;;;;;23.13;13.93;;;;;;;8.78;81.49;99815.59;5006133;28;20556;-85
2023/03/15 16:49:45;;;;;;;23.67;14.80;;;;;;;8.70;81.26;99806.72;5008507;28;20439;-85
2023/03/15 16:52:11;;;;;;;25.05;15.38;;;;;;;8.77;81.59;99815.75;5002915;28;20021;-86
2023/03/15 16:54:40;;;;;;;28.17;16.33;;;;;;;8.75;81.52;99809.75;5002753;28;20451;-83
2023/03/15 16:57:18;;;;;;;28.80;15.82;;;;;;;8.78;81.27;99820.97;5010689;28;20037;-85
2023/03/15 16:59:48;;;;;;;25.25;13.82;;;;;;;8.60;81.46;99818.47;5011604;28;20073;-84
2023/03/15 17:02:16;;;;;;;27.00;15.95;;;;;;;8.54;81.94;99818.28;5007881;28;20099;-83
2023/03/15 17:04:45;;;;;;;32.83;18.98;;;;;;;8.38;81.92;99792.31;5005090;28;20046;-87
2023/03/15 17:07:13;;;;;;;39.45;20.98;;;;;;;8.52;82.52;99829.19;5009868;28;20045;-88
2023/03/15 17:09:42;;;;;;;42.63;22.38;;;;;;;8.53;82.89;99830.88;5008820;28;20026;-86
2023/03/15 17:12:16;;;;;;;35.80;19.65;;;;;;;8.51;83.23;99824.84;5009245;28;20147;-84
2023/03/15 17:14:42;;;;;;;29.00;18.58;;;;;;;8.31;83.18;99792.16;5008032;28;20160;-86
2023/03/15 17:17:10;;;;;;;32.33;18.27;;;;;;;8.52;83.43;99831.88;4981833;28;20042;-87
2023/03/15 17:19:36;;;;;;;36.05;19.52;;;;;;;8.35;83.17;99798.00;4991398;28;20096;-84
2023/03/15 17:22:10;;;;;;;33.03;20.30;;;;;;;8.44;83.46;99819.31;4966038;28;20065;-86
2023/03/15 17:24:37;;;;;;;28.83;18.80;;;;;;;8.52;83.52;99826.53;4981329;28;20506;-88
2023/03/15 17:27:03;;;;;;;30.27;18.85;;;;;;;8.38;83.04;99819.97;4939571;28;20486;-91
2023/03/15 17:29:28;;;;;;;28.58;16.75;;;;;;;8.41;83.37;99825.00;4983505;28;20077;-88
2023/03/15 17:31:54;;;;;;;31.63;18.77;;;;;;;8.39;83.76;99842.22;4989408;28;20056;-86
2023/03/15 17:34:21;;;;;;;40.55;20.63;;;;;;;8.41;83.93;99834.88;4987218;28;20060;-85
2023/03/15 17:36:48;;;;;;;35.10;19.52;;;;;;;8.35;83.56;99830.16;4959360;28;20030;-86
2023/03/15 17:39:14;;;;;;;21.75;13.73;;;;;;;8.34;83.66;99833.84;4971700;28;20034;-86
2023/03/15 17:41:44;;;;;;;31.40;18.10;;;;;;;8.39;84.03;99847.56;4968064;28;20061;-88
2023/03/15 17:44:09;;;;;;;30.13;18.30;;;;;;;8.16;83.64;99800.00;4983335;28;20050;-89
2023/03/15 17:46:36;;;;;;;36.70;20.02;;;;;;;8.38;84.19;99829.81;4959793;28;20038;-89
2023/03/15 17:49:05;;;;;;;36.63;16.77;;;;;;;8.12;84.55;99789.81;4981365;28;20481;-90
2023/03/15 17:52:00;;;;;;;28.80;15.90;;;;;;;8.38;84.09;99817.28;4971733;28;20026;-86
2023/03/15 17:54:26;;;;;;;30.40;17.38;;;;;;;8.20;83.87;99787.97;4985104;28;20079;-88
2023/03/15 17:56:55;;;;;;;33.28;17.85;;;;;;;8.36;84.13;99821.13;4981663;28;20112;-89
2023/03/15 17:59:21;;;;;;;34.22;18.08;;;;;;;8.34;84.10;99799.03;4968000;28;20355;-86
2023/03/15 18:01:47;;;;;;;34.22;17.42;;;;;;;8.42;83.82;99829.34;4970083;28;20054;-86
2023/03/15 18:04:14;;;;;;;30.48;17.23;;;;;;;8.41;84.13;99829.53;4953787;28;20050;-84
2023/03/15 18:06:40;;;;;;;30.55;18.08;;;;;;;8.47;83.79;99836.88;4988126;28;20078;-84
2023/03/15 18:09:05;;;;;;;32.88;18.75;;;;;;;8.49;83.25;99818.81;4969372;28;20091;-83
2023/03/15 18:11:34;;;;;;;31.38;17.65;;;;;;;8.49;83.52;99836.72;4987293;28;20332;-85
2023/03/15 18:14:03;;;;;;;29.45;17.63;;;;;;;8.41;83.84;99835.72;5017096;28;20072;-84
2023/03/15 18:16:31;;;;;;;34.85;18.58;;;;;;;8.58;82.97;99828.50;5014567;28;20108;-83
2023/03/15 18:18:58;;;;;;;31.20;17.88;;;;;;;8.55;82.84;99815.47;5018802;28;20053;-85
2023/03/15 18:21:25;;;;;;;30.27;17.98;;;;;;;8.63;82.36;99812.75;4979274;28;20084;-87
2023/03/15 18:23:51;;;;;;;37.17;18.33;;;;;;;8.52;82.74;99813.13;5000463;28;20124;-85
2023/03/15 18:26:17;;;;;;;31.50;17.73;;;;;;;8.27;83.29;99803.38;5013708;28;20033;-86
2023/03/15 18:28:43;;;;;;;34.53;17.80;;;;;;;8.36;83.36;99824.66;5009160;28;20036;-84
2023/03/15 18:31:39;;;;;;;30.77;17.73;;;;;;;8.53;82.71;99822.81;4992563;28;20033;-85
2023/03/15 18:34:05;;;;;;;33.45;19.23;;;;;;;8.54;82.55;99829.00;5008273;28;20478;-86
2023/03/15 18:36:31;;;;;;;28.70;17.42;;;;;;;8.53;82.43;99828.19;5013256;28;20143;-86
2023/03/15 18:38:57;;;;;;;37.05;18.70;;;;;;;8.57;82.42;99836.72;5008122;28;20041;-85
2023/03/15 18:41:26;;;;;;;29.33;14.95;;;;;;;8.53;82.05;99822.81;5032287;28;20154;-85
2023/03/15 18:43:52;;;;;;;28.30;16.38;;;;;;;8.45;81.96;99821.00;4990263;28;20135;-85
2023/03/15 18:46:26;;;;;;;28.98;16.23;;;;;;;8.53;82.03;99832.72;5011352;28;20077;-86
2023/03/15 18:49:01;;;;;;;25.38;15.55;;;;;;;8.60;81.84;99842.56;5005693;28;20121;-85
2023/03/15 18:51:28;;;;;;;28.17;15.55;;;;;;;8.55;81.42;99810.09;5019213;28;20119;-83
2023/03/15 18:53:54;;;;;;;22.52;14.95;;;;;;;8.70;80.96;99825.50;5027963;28;20041;-82
2023/03/15 18:56:25;;;;;;;29.95;17.50;;;;;;;8.58;81.27;99819.66;5014003;28;20366;-82
2023/03/15 18:58:52;;;;;;;25.63;15.73;;;;;;;8.72;81.14;99837.72;5006108;28;20045;-85
2023/03/15 19:01:23;;;;;;;26.02;15.70;;;;;;;8.62;82.25;99832.53;5017466;28;20072;-83
2023/03/15 19:03:51;;;;;;;28.08;16.65;;;;;;;8.64;82.61;99846.59;5013521;28;20072;-85
2023/03/15 19:06:18;;;;;;;26.85;17.20;;;;;;;8.63;82.67;99839.56;5001758;28;20046;-84
2023/03/15 19:08:50;;;;;;;29.17;17.17;;;;;;;8.61;82.86;99846.09;4996593;28;20099;-84
2023/03/15 19:11:15;;;;;;;29.92;16.15;;;;;;;8.54;83.04;99829.84;5015333;28;20195;-83
2023/03/15 19:13:42;;;;;;;25.63;15.90;;;;;;;8.51;84.11;99838.22;5011546;28;20046;-83
2023/03/15 19:16:08;;;;;;;26.52;15.82;;;;;;;8.48;84.36;99835.88;5007034;28;20053;-86
2023/03/15 19:18:34;;;;;;;26.02;16.35;;;;;;;8.41;84.90;99835.72;5010887;28;20028;-84
2023/03/15 19:21:00;;;;;;;29.02;17.05;;;;;;;8.39;84.80;99826.16;5008343;28;20057;-83
2023/03/15 19:23:26;;;;;;;;;;;;;;;8.56;85.43;99848.44;4993983;28;20052;-83
2023/03/15 19:25:53;;;;;;;28.63;15.77;;;;;;;8.34;85.50;99828.50;5007390;28;19920;-84
2023/03/15 19:28:20;;;;;;;29.10;16.23;;;;;;;8.32;85.89;99819.78;5008929;28;20060;-83
2023/03/15 19:30:46;;;;;;;27.50;17.42;;;;;;;8.27;86.74;99855.09;5010188;28;20163;-82
2023/03/15 19:33:11;;;;;;;29.13;16.40;;;;;;;8.28;86.98;99855.94;5023462;28;20517;-84
2023/03/15 19:35:37;;;;;;;32.53;18.40;;;;;;;8.16;86.84;99840.19;5034652;28;20080;-84
2023/03/15 19:38:03;;;;;;;29.70;18.00;;;;;;;8.15;87.16;99843.88;4998213;28;20033;-81
2023/03/15 19:40:29;;;;;;;27.77;16.95;;;;;;;8.25;86.37;99841.88;5014209;28;20048;-83
2023/03/15 19:42:55;;;;;;;32.42;16.70;;;;;;;8.30;86.44;99843.22;4994346;28;20504;-85
2023/03/15 19:45:22;;;;;;;25.42;15.75;;;;;;;8.37;85.86;99834.34;5014734;28;20068;-85
2023/03/15 19:47:48;;;;;;;27.52;17.95;;;;;;;8.29;85.95;99830.81;5013741;28;20041;-83
2023/03/15 19:50:14;;;;;;;25.25;14.90;;;;;;;8.25;85.83;99804.38;5005788;28;20041;-84
2023/03/15 19:52:44;;;;;;;25.10;15.43;;;;;;;8.52;85.28;99842.59;5011186;28;20095;-83
2023/03/15 19:55:14;;;;;;;22.60;15.13;;;;;;;8.51;85.04;99838.22;5011803;28;20022;-83
2023/03/15 19:57:40;;;;;;;20.20;12.38;;;;;;;8.37;85.10;99817.44;5008942;28;20029;-83
2023/03/15 20:00:13;;;;;;;23.77;14.15;;;;;;;8.35;85.06;99825.63;5008512;28;20140;-85